Time;durP1;ratioP1;P1;durP2;ratioP2;P2;SDS_P1;SDS_P2;PMS_P1;PMS_P2;Temp;Humidity;BMP_temperature;BMP_pressure;BME280_temperature;BME280_humidity;BME280_pressure;Samples;Min_cycle;Max_cycle;Signal;HPM_P1;HPM_P2
2022/06/22 00:00:07;;;;;;;4.93;2.30;;;23.70;97.20;;;;;;4232945;27;20269;-78
2022/06/22 00:02:16;;;;;;;3.78;2.40;;;23.70;97.10;;;;;;4236117;27;20221;-77
2022/06/22 00:04:22;;;;;;;3.40;2.20;;;23.70;97.20;;;;;;4233665;27;20220;-78
2022/06/22 00:06:31;;;;;;;5.20;2.45;;;23.70;97.50;;;;;;4234217;27;20278;-78
2022/06/22 00:08:36;;;;;;;6.90;2.85;;;23.70;97.50;;;;;;4231436;27;20213;-78
2022/06/22 00:10:53;;;;;;;4.20;2.20;;;23.60;97.30;;;;;;4232302;27;20283;-78
2022/06/22 00:12:57;;;;;;;4.72;2.33;;;23.60;97.50;;;;;;4231933;27;20213;-78
2022/06/22 00:15:03;;;;;;;4.05;2.30;;;23.70;97.30;;;;;;4235428;27;20684;-78
2022/06/22 00:17:05;;;;;;;4.43;2.65;;;23.70;97.10;;;;;;4239218;27;20243;-78
2022/06/22 00:19:22;;;;;;;6.43;2.80;;;23.70;97.20;;;;;;4235914;27;20268;-78
2022/06/22 00:21:31;;;;;;;4.65;2.70;;;23.70;97.40;;;;;;4238783;27;20661;-78
2022/06/22 00:23:39;;;;;;;3.88;2.50;;;23.70;97.20;;;;;;4235301;27;20212;-78
2022/06/22 00:25:44;;;;;;;4.68;2.30;;;23.70;97.30;;;;;;4236384;27;20843;-78
2022/06/22 00:27:47;;;;;;;3.38;2.20;;;23.60;97.30;;;;;;4234655;27;20274;-78
2022/06/22 00:30:12;;;;;;;4.25;2.10;;;23.60;97.50;;;;;;4239090;27;20304;-78
2022/06/22 00:32:17;;;;;;;4.75;2.60;;;23.60;97.10;;;;;;4235883;27;20269;-78
2022/06/22 00:34:26;;;;;;;5.03;2.20;;;23.60;97.50;;;;;;4234795;27;20999;-78
2022/06/22 00:36:33;;;;;;;3.13;2.05;;;23.60;97.50;;;;;;4237817;27;20352;-78
2022/06/22 00:38:35;;;;;;;4.90;2.55;;;23.60;97.20;;;;;;4237710;27;20217;-78
2022/06/22 00:40:38;;;;;;;3.15;2.10;;;23.60;97.50;;;;;;4237701;27;20607;-78
2022/06/22 00:42:44;;;;;;;4.93;2.17;;;23.60;97.80;;;;;;4232412;27;20212;-78
2022/06/22 00:44:51;;;;;;;4.05;2.50;;;23.50;97.50;;;;;;4231378;27;20271;-78
2022/06/22 00:47:01;;;;;;;3.28;2.50;;;23.60;97.30;;;;;;4234140;27;20622;-78
2022/06/22 00:49:14;;;;;;;2.97;2.20;;;23.50;97.30;;;;;;4229738;27;20214;-78
2022/06/22 00:51:23;;;;;;;4.57;2.30;;;23.50;97.20;;;;;;4232063;27;20217;-78
2022/06/22 00:53:32;;;;;;;3.72;2.25;;;23.50;97.40;;;;;;4236746;27;20209;-78
2022/06/22 00:55:38;;;;;;;3.08;2.10;;;23.50;97.30;;;;;;4234761;27;20213;-78
2022/06/22 00:57:41;;;;;;;4.78;2.60;;;23.60;97.50;;;;;;4233718;27;21636;-78
2022/06/22 00:59:52;;;;;;;3.95;2.25;;;23.60;97.50;;;;;;4233974;27;20261;-78
2022/06/22 01:01:59;;;;;;;2.50;2.10;;;23.50;97.50;;;;;;4232720;27;20278;-78
2022/06/22 01:04:06;;;;;;;3.50;2.13;;;23.50;97.40;;;;;;4234969;27;20357;-78
2022/06/22 01:06:15;;;;;;;4.78;2.25;;;23.50;97.40;;;;;;4230792;27;20314;-78
2022/06/22 01:08:34;;;;;;;4.63;2.10;;;23.50;97.50;;;;;;4231212;27;20253;-78
2022/06/22 01:10:44;;;;;;;3.25;2.08;;;23.50;97.50;;;;;;4233153;27;20213;-78
2022/06/22 01:12:51;;;;;;;3.88;2.45;;;23.50;97.50;;;;;;4233293;27;20213;-78
2022/06/22 01:15:11;;;;;;;4.22;2.25;;;23.50;97.40;;;;;;4233139;27;20600;-78
2022/06/22 01:17:20;;;;;;;3.15;1.90;;;23.50;97.70;;;;;;4233624;27;20643;-79
2022/06/22 01:19:36;;;;;;;2.72;2.22;;;23.50;97.40;;;;;;4229738;27;20229;-78
2022/06/22 01:21:43;;;;;;;3.65;2.28;;;23.40;97.50;;;;;;4234274;27;20682;-78
2022/06/22 01:24:16;;;;;;;3.95;2.67;;;23.50;97.70;;;;;;4234792;27;20233;-78
2022/06/22 01:26:59;;;;;;;3.63;2.17;;;23.40;97.50;;;;;;4232858;28;20282;-78
2022/06/22 01:29:11;;;;;;;2.85;2.10;;;23.40;97.40;;;;;;4229606;27;20274;-78
2022/06/22 01:31:15;;;;;;;4.95;2.25;;;23.40;97.50;;;;;;4232622;28;20240;-78
2022/06/22 01:33:24;;;;;;;4.85;2.33;;;23.40;97.50;;;;;;4232296;28;20255;-78
2022/06/22 01:35:30;;;;;;;3.55;2.00;;;23.40;97.60;;;;;;4235507;28;20250;-78
2022/06/22 01:37:34;;;;;;;2.22;1.90;;;23.40;97.70;;;;;;4231550;28;20342;-78
2022/06/22 01:39:36;;;;;;;3.35;2.45;;;23.40;97.80;;;;;;4233505;28;20258;-78
2022/06/22 01:41:42;;;;;;;2.28;1.90;;;23.40;97.70;;;;;;4235112;28;20313;-78
2022/06/22 01:43:51;;;;;;;2.95;2.03;;;23.40;97.90;;;;;;4236868;28;20293;-78
2022/06/22 01:46:03;;;;;;;4.15;2.33;;;23.30;97.70;;;;;;4232612;28;20220;-78
2022/06/22 01:48:12;;;;;;;4.55;2.10;;;23.30;97.70;;;;;;4234138;28;20217;-78
2022/06/22 01:50:20;;;;;;;3.17;2.13;;;23.40;97.70;;;;;;4231232;28;20259;-79
2022/06/22 01:52:45;;;;;;;2.35;2.03;;;23.40;97.80;;;;;;4237352;28;20277;-78
2022/06/22 01:54:57;;;;;;;3.80;2.10;;;23.40;97.60;;;;;;4235133;28;20290;-78
2022/06/22 01:57:06;;;;;;;2.92;2.00;;;23.40;97.70;;;;;;4234256;28;20344;-78
2022/06/22 01:59:20;;;;;;;3.63;1.83;;;23.40;97.60;;;;;;4234115;28;20269;-78
2022/06/22 02:01:33;;;;;;;2.97;2.35;;;23.30;97.60;;;;;;4233340;28;20217;-78
2022/06/22 02:03:38;;;;;;;3.10;2.13;;;23.30;97.70;;;;;;4231880;28;20545;-78
2022/06/22 02:05:44;;;;;;;3.67;2.22;;;23.30;97.80;;;;;;4233672;28;20262;-78
2022/06/22 02:07:54;;;;;;;3.78;2.42;;;23.30;97.80;;;;;;4229808;28;20205;-78
2022/06/22 02:10:12;;;;;;;2.42;2.05;;;23.30;97.90;;;;;;4227644;28;20272;-78
2022/06/22 02:12:26;;;;;;;3.38;2.15;;;23.30;98.00;;;;;;4230895;28;20225;-78
2022/06/22 02:14:29;;;;;;;4.32;2.47;;;23.30;97.90;;;;;;4232971;28;20262;-78
2022/06/22 02:16:38;;;;;;;3.13;1.90;;;23.30;97.90;;;;;;4232033;28;20281;-78
2022/06/22 02:18:46;;;;;;;3.22;1.85;;;23.30;97.90;;;;;;4233984;28;20217;-78
2022/06/22 02:20:49;;;;;;;2.67;2.00;;;23.30;97.90;;;;;;4234402;27;20221;-78
2022/06/22 02:22:53;;;;;;;3.75;2.30;;;23.30;97.80;;;;;;4238468;27;20218;-78
2022/06/22 02:24:55;;;;;;;3.38;1.92;;;23.30;97.80;;;;;;4235078;27;20209;-78
2022/06/22 02:27:01;;;;;;;2.92;1.90;;;23.30;98.00;;;;;;4237530;27;20270;-78
2022/06/22 02:29:04;;;;;;;3.30;1.90;;;23.30;97.90;;;;;;4236912;27;20274;-78
2022/06/22 02:31:07;;;;;;;3.10;1.88;;;23.30;98.00;;;;;;4234061;27;20317;-78
2022/06/22 02:33:11;;;;;;;2.67;2.00;;;23.30;97.80;;;;;;4237584;27;20222;-78
2022/06/22 02:35:15;;;;;;;3.17;2.15;;;23.30;97.90;;;;;;4234509;27;20249;-78
2022/06/22 02:37:19;;;;;;;4.93;2.20;;;23.30;97.80;;;;;;4236263;27;20237;-78
2022/06/22 02:39:24;;;;;;;3.58;2.28;;;23.30;97.80;;;;;;4233631;27;20226;-78
2022/06/22 02:46:12;;;;;;;3.13;1.92;;;23.30;97.90;;;;;;4236750;27;20210;-78
2022/06/22 02:48:26;;;;;;;3.70;2.30;;;23.30;98.20;;;;;;4234561;27;20201;-78
2022/06/22 02:50:36;;;;;;;3.25;2.17;;;23.30;97.80;;;;;;4233468;27;20665;-78
2022/06/22 02:52:44;;;;;;;2.30;1.90;;;23.20;97.80;;;;;;4234233;27;20217;-78
2022/06/22 02:54:49;;;;;;;4.25;2.00;;;23.30;98.10;;;;;;4235179;27;20274;-78
2022/06/22 02:57:04;;;;;;;3.72;1.80;;;23.20;98.00;;;;;;4235434;27;20233;-78
2022/06/22 02:59:08;;;;;;;4.10;2.20;;;23.20;97.90;;;;;;4234578;27;20229;-78
2022/06/22 03:01:14;;;;;;;3.58;2.15;;;23.20;97.80;;;;;;4234607;27;20684;-78
2022/06/22 03:03:18;;;;;;;4.22;1.90;;;23.20;98.00;;;;;;4236805;27;20202;-78
2022/06/22 03:05:24;;;;;;;2.42;1.95;;;23.20;97.80;;;;;;4232645;27;20225;-78
2022/06/22 03:07:26;;;;;;;3.42;2.03;;;23.20;97.80;;;;;;4236010;27;20254;-78
2022/06/22 03:09:29;;;;;;;4.75;2.20;;;23.20;98.10;;;;;;4233174;27;20615;-78
2022/06/22 03:11:33;;;;;;;2.78;2.10;;;23.20;97.80;;;;;;4233504;27;20217;-78
2022/06/22 03:13:40;;;;;;;2.78;1.80;;;23.20;97.90;;;;;;4232445;27;20674;-78
2022/06/22 03:15:44;;;;;;;3.47;2.17;;;23.20;98.20;;;;;;4235693;27;20341;-79
2022/06/22 03:17:46;;;;;;;1.80;1.70;;;23.20;97.80;;;;;;4233524;27;21021;-78
2022/06/22 03:19:54;;;;;;;4.47;2.00;;;23.20;97.90;;;;;;4231740;27;20217;-78
2022/06/22 03:21:58;;;;;;;4.70;2.05;;;23.20;97.80;;;;;;4236663;27;20221;-78
2022/06/22 03:24:05;;;;;;;2.90;1.92;;;23.20;97.90;;;;;;4236751;27;20210;-78
2022/06/22 03:26:15;;;;;;;2.28;1.67;;;23.20;97.90;;;;;;4235593;27;20612;-78
2022/06/22 03:28:24;;;;;;;3.22;2.03;;;23.20;98.00;;;;;;4236092;27;20285;-78
2022/06/22 03:30:29;;;;;;;2.78;1.95;;;23.20;97.90;;;;;;4234148;27;20642;-78
2022/06/22 03:32:35;;;;;;;3.28;1.98;;;23.20;98.00;;;;;;4235781;27;20213;-78
2022/06/22 03:34:41;;;;;;;1.98;1.77;;;23.20;98.00;;;;;;4234805;27;20241;-79
2022/06/22 03:36:48;;;;;;;3.80;1.90;;;23.20;97.90;;;;;;4235612;27;20233;-78
2022/06/22 03:38:58;;;;;;;3.38;2.10;;;23.20;97.90;;;;;;4236657;27;20258;-78
2022/06/22 03:41:05;;;;;;;2.45;2.10;;;23.20;98.10;;;;;;4236413;27;20615;-78
2022/06/22 03:43:12;;;;;;;2.75;1.92;;;23.20;98.10;;;;;;4233934;27;20218;-78
2022/06/22 03:45:18;;;;;;;2.55;1.50;;;23.20;98.00;;;;;;4238350;27;20224;-79
2022/06/22 03:47:25;;;;;;;2.60;1.80;;;23.20;98.00;;;;;;4232594;27;20271;-78
2022/06/22 03:49:33;;;;;;;3.97;2.05;;;23.20;98.10;;;;;;4235239;27;20210;-78
2022/06/22 03:51:42;;;;;;;3.95;2.25;;;23.20;97.90;;;;;;4233303;27;20257;-78
2022/06/22 03:53:51;;;;;;;3.10;1.90;;;23.20;98.40;;;;;;4235088;27;20719;-78
2022/06/22 03:55:58;;;;;;;4.00;2.17;;;23.20;98.10;;;;;;4233524;27;20274;-78
2022/06/22 03:58:03;;;;;;;3.58;1.90;;;23.20;98.00;;;;;;4234063;27;20322;-78
2022/06/22 04:00:09;;;;;;;3.15;2.20;;;23.20;98.10;;;;;;4236504;27;20270;-79
2022/06/22 04:02:11;;;;;;;2.63;1.70;;;23.10;98.10;;;;;;4238066;27;20272;-78
2022/06/22 04:04:14;;;;;;;2.75;1.90;;;23.10;98.00;;;;;;4237911;27;20213;-78
2022/06/22 04:06:24;;;;;;;3.03;1.92;;;23.20;98.10;;;;;;4236559;27;20286;-78
2022/06/22 04:08:30;;;;;;;2.65;1.80;;;23.20;98.10;;;;;;4235193;27;20217;-78
2022/06/22 04:10:40;;;;;;;2.70;1.70;;;23.10;98.00;;;;;;4236360;27;20243;-78
2022/06/22 04:12:48;;;;;;;4.03;2.05;;;23.20;98.30;;;;;;4236150;27;20212;-78
2022/06/22 04:14:56;;;;;;;3.13;1.75;;;23.10;98.10;;;;;;4233300;27;20220;-78
2022/06/22 04:17:02;;;;;;;2.58;1.80;;;23.10;98.20;;;;;;4235813;27;20216;-78
2022/06/22 04:19:11;;;;;;;2.72;1.95;;;23.10;98.20;;;;;;4233567;27;20824;-78
2022/06/22 04:21:19;;;;;;;2.20;1.85;;;23.10;98.20;;;;;;4233074;27;20217;-78
2022/06/22 04:23:29;;;;;;;4.07;1.90;;;23.10;98.30;;;;;;4235391;27;20221;-78
2022/06/22 04:25:39;;;;;;;3.90;2.17;;;23.10;98.20;;;;;;4235636;27;20212;-78
2022/06/22 04:27:48;;;;;;;2.80;2.00;;;23.10;98.20;;;;;;4234927;27;20273;-79
2022/06/22 04:29:55;;;;;;;3.97;2.35;;;23.10;98.30;;;;;;4236635;27;20261;-79
2022/06/22 04:32:02;;;;;;;3.20;1.98;;;23.10;98.20;;;;;;4234817;27;20218;-79
2022/06/22 04:34:07;;;;;;;3.25;1.90;;;23.10;98.20;;;;;;4232371;27;20237;-78
2022/06/22 04:36:13;;;;;;;3.35;1.85;;;23.10;98.30;;;;;;4234374;27;20244;-79
2022/06/22 04:38:33;;;;;;;2.58;1.70;;;23.10;98.40;;;;;;4235283;27;20237;-79
2022/06/22 04:40:46;;;;;;;3.72;2.00;;;23.10;98.20;;;;;;4233782;27;20210;-78
2022/06/22 04:42:55;;;;;;;4.43;2.08;;;23.10;98.10;;;;;;4234579;27;20273;-78
2022/06/22 04:44:58;;;;;;;3.50;1.85;;;23.10;98.10;;;;;;4234485;27;20247;-78
2022/06/22 04:47:13;;;;;;;2.90;1.90;;;23.10;98.20;;;;;;4235830;27;20262;-78
2022/06/22 04:49:21;;;;;;;2.53;1.63;;;23.10;98.40;;;;;;4235932;27;20210;-78
2022/06/22 04:51:28;;;;;;;3.05;2.10;;;23.10;98.40;;;;;;4233097;27;20608;-78
2022/06/22 04:53:34;;;;;;;2.50;1.80;;;23.10;98.40;;;;;;4232446;27;20212;-79
2022/06/22 04:55:40;;;;;;;3.22;1.80;;;23.10;98.40;;;;;;4233142;27;20925;-78
2022/06/22 04:57:45;;;;;;;3.97;1.85;;;23.10;98.40;;;;;;4231496;27;20250;-78
2022/06/22 04:59:50;;;;;;;2.20;1.65;;;23.10;98.40;;;;;;4233073;27;20263;-78
2022/06/22 05:01:57;;;;;;;2.60;1.90;;;23.10;98.40;;;;;;4234231;27;20267;-78
2022/06/22 05:04:05;;;;;;;2.40;1.63;;;23.10;98.40;;;;;;4233651;27;20258;-78
2022/06/22 05:06:15;;;;;;;3.38;1.88;;;23.10;98.80;;;;;;4232853;27;20209;-78
2022/06/22 05:08:24;;;;;;;3.50;1.90;;;23.10;98.40;;;;;;4234025;27;20202;-78
2022/06/22 05:10:35;;;;;;;2.50;1.80;;;23.10;98.40;;;;;;4232219;27;20217;-78
2022/06/22 05:12:45;;;;;;;2.83;1.95;;;23.10;98.40;;;;;;4233648;27;20279;-78
2022/06/22 05:14:50;;;;;;;2.25;1.40;;;23.10;98.40;;;;;;4230205;27;20213;-78
2022/06/22 05:16:57;;;;;;;4.38;2.00;;;23.10;98.50;;;;;;4234257;27;20274;-78
2022/06/22 05:19:01;;;;;;;1.92;1.70;;;23.10;98.50;;;;;;4236875;27;20288;-78
2022/06/22 05:21:14;;;;;;;3.20;1.80;;;23.10;98.80;;;;;;4233967;27;20588;-78
2022/06/22 05:23:19;;;;;;;3.53;1.80;;;23.10;98.50;;;;;;4232640;27;20282;-78
2022/06/22 05:25:21;;;;;;;4.18;2.10;;;23.20;98.50;;;;;;4230235;27;20635;-78
2022/06/22 05:27:28;;;;;;;4.88;2.00;;;23.10;98.50;;;;;;4230697;27;20281;-78
2022/06/22 05:29:33;;;;;;;2.97;1.95;;;23.10;98.50;;;;;;4230834;28;20619;-78
2022/06/22 05:31:40;;;;;;;4.18;1.80;;;23.10;98.50;;;;;;4235979;27;21897;-78
2022/06/22 05:33:48;;;;;;;2.90;1.92;;;23.10;98.40;;;;;;4234396;28;20273;-78
2022/06/22 05:35:54;;;;;;;2.70;1.90;;;23.10;98.40;;;;;;4233668;28;20219;-78
2022/06/22 05:38:00;;;;;;;2.42;2.15;;;23.20;98.90;;;;;;4232719;28;20314;-78
2022/06/22 05:40:03;;;;;;;2.47;1.73;;;23.10;98.50;;;;;;4231623;28;20205;-78
2022/06/22 05:42:07;;;;;;;2.63;2.10;;;23.20;98.70;;;;;;4232780;28;20226;-78
2022/06/22 05:44:12;;;;;;;5.07;1.77;;;23.10;98.60;;;;;;4235640;28;20225;-78
2022/06/22 05:46:16;;;;;;;2.38;1.90;;;23.20;98.70;;;;;;4235140;28;20213;-78
2022/06/22 05:48:25;;;;;;;3.08;1.70;;;23.10;98.70;;;;;;4232922;28;20550;-78
2022/06/22 05:50:37;;;;;;;3.00;1.92;;;23.20;98.80;;;;;;4233274;28;20360;-79
2022/06/22 05:52:44;;;;;;;5.47;2.05;;;23.10;98.70;;;;;;4233204;28;20221;-78
2022/06/22 05:54:52;;;;;;;2.45;1.70;;;23.20;98.70;;;;;;4233090;27;20267;-78
2022/06/22 05:57:01;;;;;;;3.20;2.10;;;23.20;98.80;;;;;;4234294;27;20216;-78
2022/06/22 05:59:10;;;;;;;2.20;1.83;;;23.10;98.80;;;;;;4235613;27;20237;-78
2022/06/22 06:01:20;;;;;;;3.53;1.80;;;23.10;99.00;;;;;;4232769;27;20216;-78
2022/06/22 06:03:39;;;;;;;4.25;1.85;;;23.10;99.00;;;;;;4233376;27;20213;-78
2022/06/22 06:05:46;;;;;;;2.60;1.60;;;23.10;98.90;;;;;;4237220;27;20273;-78
2022/06/22 06:07:55;;;;;;;3.92;2.13;;;23.10;99.00;;;;;;4235315;27;20266;-78
2022/06/22 06:09:58;;;;;;;2.85;1.92;;;23.20;99.50;;;;;;4234419;27;20305;-78
2022/06/22 06:12:04;;;;;;;3.03;1.85;;;23.20;98.90;;;;;;4234834;27;20263;-78
2022/06/22 06:14:13;;;;;;;2.47;1.98;;;23.20;99.30;;;;;;4237397;27;20673;-78
2022/06/22 06:16:23;;;;;;;2.60;1.67;;;23.20;98.70;;;;;;4239782;27;20282;-77
2022/06/22 06:18:30;;;;;;;1.92;1.67;;;23.20;98.80;;;;;;4234233;27;20221;-78
2022/06/22 06:20:36;;;;;;;2.45;1.55;;;23.30;98.80;;;;;;4236485;27;20971;-78
2022/06/22 06:22:39;;;;;;;2.67;1.83;;;23.30;98.80;;;;;;4236165;27;20226;-78
2022/06/22 06:29:30;;;;;;;3.40;2.03;;;23.30;98.80;;;;;;4235093;27;20190;-78
2022/06/22 06:31:39;;;;;;;3.70;1.70;;;23.30;98.90;;;;;;4236574;27;20213;-78
2022/06/22 06:33:41;;;;;;;3.50;1.83;;;23.30;98.70;;;;;;4232919;27;20262;-78
2022/06/22 06:35:48;;;;;;;4.53;1.80;;;23.30;98.80;;;;;;4218670;28;20255;-79
2022/06/22 06:38:00;;;;;;;3.63;1.80;;;23.20;98.70;;;;;;4219615;28;20268;-78
2022/06/22 06:40:02;;;;;;;3.03;1.83;;;23.30;98.70;;;;;;4220266;28;20245;-78
2022/06/22 06:42:17;;;;;;;3.40;1.88;;;23.30;98.70;;;;;;4218964;28;20214;-78
2022/06/22 06:44:23;;;;;;;3.75;1.90;;;23.30;98.80;;;;;;4216217;28;20214;-78
2022/06/22 06:46:31;;;;;;;4.05;2.00;;;23.30;98.80;;;;;;4217643;28;20218;-78
2022/06/22 06:48:36;;;;;;;2.55;1.65;;;23.30;98.90;;;;;;4220906;28;20213;-78
2022/06/22 06:50:43;;;;;;;4.38;1.77;;;23.40;99.20;;;;;;4219366;28;20210;-80
2022/06/22 06:52:52;;;;;;;6.00;4.50;;;23.40;99.00;;;;;;4218824;28;20271;-79
2022/06/22 06:55:01;;;;;;;6.97;4.68;;;23.10;99.60;;;;;;4220525;28;20213;-81
2022/06/22 06:57:08;;;;;;;13.35;5.85;;;22.70;99.90;;;;;;4220896;28;20714;-88
2022/06/22 06:59:17;;;;;;;9.20;5.45;;;22.60;99.90;;;;;;4220069;28;20299;-81
2022/06/22 07:01:22;;;;;;;8.88;5.60;;;22.40;99.90;;;;;;4219972;28;20258;-81
2022/06/22 07:03:29;;;;;;;9.45;5.75;;;22.40;99.90;;;;;;4220905;28;20708;-82
2022/06/22 07:05:32;;;;;;;9.70;6.10;;;22.30;99.90;;;;;;4217005;28;20299;-83
2022/06/22 07:07:42;;;;;;;15.60;6.47;;;22.30;99.90;;;;;;4220025;28;20218;-80
2022/06/22 07:09:48;;;;;;;10.80;6.22;;;22.20;99.90;;;;;;4221226;28;20251;-81
2022/06/22 07:11:52;;;;;;;10.50;6.30;;;22.30;99.90;;;;;;4223086;28;20266;-82
2022/06/22 07:13:57;;;;;;;12.13;6.40;;;22.20;99.90;;;;;;4219811;28;20738;-82
2022/06/22 07:16:09;;;;;;;10.02;6.00;;;22.20;99.90;;;;;;4219449;28;20218;-80
2022/06/22 07:18:19;;;;;;;8.73;5.82;;;22.20;99.90;;;;;;4218204;28;20218;-80
2022/06/22 07:20:26;;;;;;;13.50;6.78;;;22.20;99.90;;;;;;4218063;28;20652;-79
2022/06/22 07:22:32;;;;;;;12.63;6.40;;;22.10;99.90;;;;;;4218093;28;20223;-80
2022/06/22 07:24:39;;;;;;;11.88;6.60;;;22.10;99.90;;;;;;4221213;28;20258;-80
2022/06/22 07:26:53;;;;;;;12.48;6.25;;;22.10;99.90;;;;;;4223987;28;20727;-79
2022/06/22 07:29:02;;;;;;;12.38;6.18;;;22.10;99.90;;;;;;4218334;28;20622;-80
2022/06/22 07:31:11;;;;;;;16.10;6.75;;;22.10;99.90;;;;;;4213097;28;20274;-79
2022/06/22 07:33:18;;;;;;;12.57;6.30;;;22.10;99.90;;;;;;4221709;28;20243;-79
2022/06/22 07:35:28;;;;;;;12.93;5.45;;;22.10;99.90;;;;;;4234468;27;20528;-78
2022/06/22 07:37:33;;;;;;;13.32;6.15;;;22.10;99.90;;;;;;4232512;27;20286;-78
2022/06/22 07:39:44;;;;;;;12.35;6.05;;;22.10;99.90;;;;;;4229084;27;20233;-79
2022/06/22 07:41:47;;;;;;;10.45;5.10;;;22.10;99.90;;;;;;4231320;27;20254;-79
2022/06/22 07:43:54;;;;;;;12.65;6.30;;;22.10;99.90;;;;;;4235660;27;20262;-79
2022/06/22 07:45:57;;;;;;;12.52;5.82;;;22.10;99.90;;;;;;4234020;27;20218;-77
2022/06/22 07:48:06;;;;;;;9.68;5.63;;;22.00;99.90;;;;;;4233410;27;20216;-77
2022/06/22 07:50:15;;;;;;;9.68;5.80;;;22.20;99.90;;;;;;4228612;27;20217;-77
2022/06/22 07:52:22;;;;;;;16.23;6.72;;;22.20;99.90;;;;;;4226432;27;20225;-79
2022/06/22 07:54:32;;;;;;;14.18;6.38;;;22.20;99.90;;;;;;4236927;27;20228;-79
2022/06/22 07:56:55;;;;;;;16.80;5.50;;;22.30;99.90;;;;;;4229786;27;20225;-78
2022/06/22 07:59:03;;;;;;;12.80;5.45;;;22.40;99.90;;;;;;4223989;27;20209;-75
2022/06/22 08:01:09;;;;;;;18.35;5.80;;;22.30;99.90;;;;;;4223044;27;20214;-76
2022/06/22 08:03:20;;;;;;;16.75;5.18;;;22.30;99.90;;;;;;4232599;27;20218;-75
2022/06/22 08:05:25;;;;;;;17.17;5.95;;;22.50;99.90;;;;;;4235396;27;20213;-75
2022/06/22 08:07:46;;;;;;;18.15;6.10;;;22.50;99.90;;;;;;4232194;27;20213;-76
2022/06/22 08:09:57;;;;;;;17.92;5.50;;;22.60;99.90;;;;;;4232990;27;20213;-78
2022/06/22 08:12:06;;;;;;;12.70;4.60;;;22.70;99.90;;;;;;4229754;27;20620;-77
2022/06/22 08:14:16;;;;;;;15.15;5.22;;;22.90;99.90;;;;;;4230647;27;20250;-77
2022/06/22 08:16:23;;;;;;;23.13;6.43;;;23.00;99.90;;;;;;4230847;27;20274;-76
2022/06/22 08:18:26;;;;;;;28.77;6.60;;;23.20;99.90;;;;;;4232143;27;20217;-78
2022/06/22 08:20:31;;;;;;;36.00;9.57;;;23.30;99.90;;;;;;4233944;27;20225;-79
2022/06/22 08:22:34;;;;;;;21.13;4.90;;;23.40;99.90;;;;;;4229492;27;20217;-77
2022/06/22 08:24:43;;;;;;;27.33;6.15;;;23.50;99.90;;;;;;4232724;27;20226;-77
2022/06/22 08:26:47;;;;;;;16.25;4.20;;;23.60;99.90;;;;;;4232192;27;20217;-76
2022/06/22 08:28:51;;;;;;;54.03;13.43;;;23.60;99.90;;;;;;4236444;27;20220;-76
2022/06/22 08:30:56;;;;;;;51.90;12.02;;;23.70;99.90;;;;;;4232106;27;20209;-75
2022/06/22 08:33:03;;;;;;;21.67;5.22;;;23.80;99.90;;;;;;4231736;27;20217;-75
2022/06/22 08:35:12;;;;;;;19.38;5.22;;;23.80;99.90;;;;;;4234619;27;20701;-75
2022/06/22 08:37:22;;;;;;;54.35;10.95;;;23.80;99.90;;;;;;4230268;27;20213;-76
2022/06/22 08:39:29;;;;;;;67.20;12.40;;;23.80;99.90;;;;;;4228144;27;20673;-75
2022/06/22 08:41:44;;;;;;;40.90;9.18;;;23.90;99.90;;;;;;4231451;27;20205;-75
2022/06/22 08:43:53;;;;;;;26.50;6.93;;;23.90;99.90;;;;;;4234058;27;20210;-75
2022/06/22 08:46:12;;;;;;;28.77;6.50;;;23.90;99.90;;;;;;4230812;27;20216;-76
2022/06/22 08:48:36;;;;;;;48.65;10.80;;;24.00;99.90;;;;;;4235522;27;20210;-76
2022/06/22 08:51:07;;;;;;;25.48;6.15;;;24.10;99.90;;;;;;4233681;27;20714;-76
2022/06/22 08:53:29;;;;;;;31.15;7.13;;;24.00;99.90;;;;;;4234576;27;20947;-75
2022/06/22 08:55:46;;;;;;;32.13;6.82;;;23.90;99.90;;;;;;4234633;27;20225;-77
2022/06/22 08:58:02;;;;;;;40.83;8.48;;;24.00;99.90;;;;;;4231119;27;20218;-78
2022/06/22 09:00:13;;;;;;;35.95;8.02;;;24.00;99.90;;;;;;4233045;27;20688;-77
2022/06/22 09:02:35;;;;;;;25.20;6.75;;;24.00;99.90;;;;;;4231802;27;20243;-77
2022/06/22 09:05:16;;;;;;;34.65;8.30;;;24.10;99.90;;;;;;4232485;27;20226;-78
2022/06/22 09:07:37;;;;;;;30.95;5.75;;;24.10;99.90;;;;;;4227791;27;20290;-75
2022/06/22 09:10:28;;;;;;;38.80;7.20;;;24.10;99.90;;;;;;4229836;27;20338;-79
2022/06/22 09:12:52;;;;;;;55.05;12.30;;;24.10;99.90;;;;;;4232690;27;20213;-75
2022/06/22 09:15:11;;;;;;;25.85;6.43;;;24.10;99.90;;;;;;4230535;27;20291;-75
2022/06/22 09:17:29;;;;;;;21.27;6.07;;;24.00;99.90;;;;;;4230904;27;20214;-75
2022/06/22 09:19:48;;;;;;;23.20;6.57;;;23.90;99.90;;;;;;4232257;27;21085;-77
2022/06/22 09:22:02;;;;;;;26.27;6.25;;;23.70;99.90;;;;;;4230357;27;20273;-78
2022/06/22 09:24:13;;;;;;;18.95;5.65;;;23.80;99.90;;;;;;4231829;27;20208;-76
2022/06/22 09:26:26;;;;;;;19.33;5.28;;;23.70;99.90;;;;;;4235003;27;20276;-79
2022/06/22 09:28:39;;;;;;;20.60;5.35;;;23.80;99.90;;;;;;4233502;28;20201;-80
2022/06/22 09:31:05;;;;;;;19.48;5.13;;;23.80;99.90;;;;;;4228369;27;20269;-78
2022/06/22 09:33:49;;;;;;;17.35;5.45;;;23.80;99.90;;;;;;4226996;27;20213;-77
2022/06/22 09:36:33;;;;;;;31.67;7.65;;;23.70;99.90;;;;;;4210810;28;20217;-77
2022/06/22 09:39:04;;;;;;;23.67;5.65;;;23.80;99.90;;;;;;4225049;28;20619;-78
2022/06/22 09:41:15;;;;;;;28.17;7.45;;;23.90;99.90;;;;;;4214247;28;20278;-76
2022/06/22 09:43:37;;;;;;;21.58;5.95;;;23.90;99.90;;;;;;4226512;28;20217;-76
2022/06/22 09:46:01;;;;;;;23.80;6.22;;;23.90;99.90;;;;;;4229315;28;20273;-80
2022/06/22 09:48:21;;;;;;;25.40;6.72;;;23.80;99.90;;;;;;4230789;28;20270;-78
2022/06/22 09:51:00;;;;;;;26.35;6.32;;;23.80;99.90;;;;;;4219925;28;20316;-78
2022/06/22 09:53:29;;;;;;;24.05;5.80;;;23.80;99.90;;;;;;4231855;28;20208;-79
2022/06/22 09:58:26;;;;;;;21.40;5.72;;;23.90;99.90;;;;;;4234568;28;20201;-79
2022/06/22 10:00:37;;;;;;;16.90;4.97;;;23.90;99.90;;;;;;4225991;28;20237;-79
2022/06/22 10:03:30;;;;;;;24.05;6.70;;;23.90;99.90;;;;;;4233574;28;20209;-79
2022/06/22 10:06:02;;;;;;;24.27;6.25;;;24.00;99.90;;;;;;4178805;28;20218;-76
2022/06/22 10:08:24;;;;;;;14.25;4.88;;;24.00;99.90;;;;;;4228846;28;20222;-76
2022/06/22 10:10:38;;;;;;;17.77;4.93;;;24.10;99.90;;;;;;4232906;28;20214;-77
2022/06/22 10:13:12;;;;;;;12.35;4.47;;;23.90;99.90;;;;;;4230399;28;20279;-76
2022/06/22 10:15:40;;;;;;;13.65;4.78;;;23.90;99.90;;;;;;4232575;28;20212;-76
2022/06/22 10:18:10;;;;;;;15.13;5.10;;;24.00;99.90;;;;;;4231074;28;20654;-78
2022/06/22 10:20:27;;;;;;;23.17;5.63;;;24.10;99.90;;;;;;4227195;28;20221;-77
2022/06/22 10:22:55;;;;;;;16.90;4.70;;;24.10;99.90;;;;;;4230828;28;20222;-76
2022/06/22 10:25:16;;;;;;;16.80;5.15;;;24.20;99.90;;;;;;4226310;28;20943;-80
2022/06/22 10:27:43;;;;;;;21.65;6.22;;;24.20;99.70;;;;;;4227481;28;20275;-76
2022/06/22 10:30:15;;;;;;;16.73;5.05;;;24.20;99.90;;;;;;4228745;28;20217;-77
2022/06/22 10:32:40;;;;;;;16.33;5.18;;;24.20;99.40;;;;;;4227869;28;20206;-76
2022/06/22 10:34:54;;;;;;;13.88;4.88;;;24.10;99.50;;;;;;4220368;28;20234;-76
2022/06/22 10:37:17;;;;;;;15.18;4.90;;;24.10;99.30;;;;;;4212710;28;20674;-75
2022/06/22 10:39:40;;;;;;;15.48;4.70;;;24.20;99.70;;;;;;4214505;28;20218;-76
2022/06/22 10:47:17;;;;;;;17.05;4.75;;;24.40;99.40;;;;;;4214847;28;20190;-75
2022/06/22 10:49:55;;;;;;;22.73;5.25;;;24.50;99.60;;;;;;4212715;28;20222;-76
2022/06/22 10:52:22;;;;;;;18.92;5.43;;;24.50;99.70;;;;;;4211260;28;20247;-76
2022/06/22 10:54:52;;;;;;;21.58;5.03;;;24.50;99.10;;;;;;4214822;28;20222;-76
2022/06/22 10:57:16;;;;;;;20.30;5.82;;;24.50;99.40;;;;;;4212395;28;20835;-78
2022/06/22 10:59:41;;;;;;;21.63;5.40;;;24.50;98.90;;;;;;4216691;28;20222;-79
2022/06/22 11:02:03;;;;;;;20.05;4.90;;;24.50;99.00;;;;;;4216869;28;20291;-81
2022/06/22 11:04:50;;;;;;;24.95;5.28;;;24.50;99.10;;;;;;4217259;28;20226;-80
2022/06/22 11:07:26;;;;;;;21.27;5.70;;;24.70;99.40;;;;;;4213251;28;20210;-80
2022/06/22 11:09:42;;;;;;;21.38;5.45;;;24.70;98.70;;;;;;4181411;28;20279;-77
2022/06/22 11:12:22;;;;;;;20.05;5.43;;;24.70;98.80;;;;;;4213943;28;20689;-79
2022/06/22 11:14:54;;;;;;;26.48;6.05;;;24.70;98.80;;;;;;4203645;28;20353;-78
2022/06/22 11:17:10;;;;;;;15.23;4.90;;;24.70;98.80;;;;;;4215029;28;20243;-78
2022/06/22 11:19:37;;;;;;;19.40;5.78;;;24.70;98.80;;;;;;4215514;28;20704;-80
2022/06/22 11:21:58;;;;;;;25.80;5.35;;;24.70;98.60;;;;;;4213660;28;20230;-79
2022/06/22 11:24:23;;;;;;;25.95;5.35;;;24.70;98.60;;;;;;4218806;28;20213;-85
2022/06/22 11:31:43;;;;;;;20.95;5.25;;;24.90;98.50;;;;;;4218782;28;20194;-84
2022/06/22 11:34:09;;;;;;;23.65;5.55;;;24.90;98.20;;;;;;4219768;28;20270;-85
2022/06/22 11:36:23;;;;;;;21.73;5.65;;;24.90;98.40;;;;;;4236261;27;20265;-82
2022/06/22 11:38:51;;;;;;;19.65;4.80;;;25.00;98.30;;;;;;4234293;27;20205;-76
2022/06/22 11:41:06;;;;;;;20.15;5.45;;;25.00;98.20;;;;;;4231383;27;20307;-78
2022/06/22 11:43:28;;;;;;;24.42;5.07;;;25.00;98.20;;;;;;4233879;27;20273;-80